createdAt,value
2023-05-08T00:00:06.453Z,4
2023-05-08T00:01:20.306Z,6
2023-05-08T00:02:34.728Z,5
2023-05-08T00:03:49.005Z,5
2023-05-08T00:05:02.966Z,5
2023-05-08T00:06:16.880Z,5
2023-05-08T00:08:45.177Z,7
2023-05-08T00:09:59.324Z,7
2023-05-08T00:11:13.428Z,4
2023-05-08T00:13:41.696Z,4
2023-05-08T00:14:55.831Z,5
2023-05-08T00:16:09.994Z,6
2023-05-08T00:17:24.173Z,5
2023-05-08T00:19:52.373Z,6
2023-05-08T00:21:06.552Z,6
2023-05-08T00:22:20.582Z,6
2023-05-08T00:24:48.907Z,6
2023-05-08T00:26:03.103Z,6
2023-05-08T00:27:17.221Z,5
2023-05-08T00:29:45.524Z,6
2023-05-08T00:30:59.542Z,6
2023-05-08T00:32:47.212Z,6
2023-05-08T00:33:28.102Z,6
2023-05-08T00:34:42.042Z,6
2023-05-08T00:35:56.119Z,6
2023-05-08T00:37:10.256Z,7
2023-05-08T00:38:24.392Z,6
2023-05-08T00:40:52.679Z,5
2023-05-08T00:42:06.859Z,7
2023-05-08T00:43:20.919Z,6
2023-05-08T00:45:49.299Z,7
2023-05-08T00:47:03.534Z,7
2023-05-08T00:48:17.524Z,6
2023-05-08T00:50:45.796Z,7
2023-05-08T00:51:59.875Z,6
2023-05-08T00:53:14.130Z,7
2023-05-08T00:55:42.295Z,6
2023-05-08T00:56:56.406Z,6
2023-05-08T00:58:10.496Z,6
2023-05-08T00:59:24.833Z,7
2023-05-08T01:01:53.012Z,7
2023-05-08T01:03:07.132Z,7
2023-05-08T01:04:21.216Z,8
2023-05-08T01:06:49.469Z,6
2023-05-08T01:08:03.667Z,7
2023-05-08T01:09:17.784Z,8
2023-05-08T01:11:46.027Z,7
2023-05-08T01:13:00.158Z,8
2023-05-08T01:14:14.349Z,8
2023-05-08T01:16:42.536Z,8
2023-05-08T01:17:56.690Z,8
2023-05-08T01:19:10.791Z,7
2023-05-08T01:20:25.050Z,8
2023-05-08T01:22:53.237Z,7
2023-05-08T01:24:07.367Z,7
2023-05-08T01:25:21.453Z,8
2023-05-08T01:27:49.817Z,8
2023-05-08T01:29:04.010Z,8
2023-05-08T01:30:18.007Z,8
2023-05-08T01:32:46.276Z,9
2023-05-08T01:34:00.527Z,11
2023-05-08T01:35:14.651Z,7
2023-05-08T01:37:42.962Z,8
2023-05-08T01:38:57.058Z,7
2023-05-08T01:40:11.629Z,10
2023-05-08T01:41:25.170Z,9
2023-05-08T01:43:53.526Z,8
2023-05-08T01:45:07.665Z,8
2023-05-08T01:46:21.771Z,10
2023-05-08T01:48:50.013Z,10
2023-05-08T01:50:04.235Z,9
2023-05-08T01:51:18.345Z,9
2023-05-08T01:53:46.636Z,9
2023-05-08T01:55:00.664Z,9
2023-05-08T01:56:14.929Z,10
2023-05-08T01:58:43.177Z,14
2023-05-08T01:59:57.173Z,12
2023-05-08T02:01:11.319Z,9
2023-05-08T02:02:25.684Z,10
2023-05-08T02:04:53.711Z,9
2023-05-08T02:06:07.921Z,12
2023-05-08T02:07:22.044Z,11
2023-05-08T02:09:50.519Z,10
2023-05-08T02:11:04.413Z,9
2023-05-08T02:12:18.551Z,9
2023-05-08T02:14:46.858Z,9
2023-05-08T02:16:00.913Z,10
2023-05-08T02:17:15.060Z,9
2023-05-08T02:20:57.494Z,10
2023-05-08T02:22:11.578Z,9
2023-05-08T02:23:25.839Z,10
2023-05-08T02:25:54.121Z,9
2023-05-08T02:27:08.231Z,12
2023-05-08T02:28:22.277Z,11
2023-05-08T02:30:50.681Z,11
2023-05-08T02:32:04.890Z,10
2023-05-08T02:33:18.846Z,10
2023-05-08T02:35:47.105Z,13
2023-05-08T02:37:01.278Z,11
2023-05-08T02:38:15.333Z,11
2023-05-08T02:40:43.689Z,10
2023-05-08T02:41:57.864Z,11
2023-05-08T02:43:11.908Z,11
2023-05-08T02:44:26.101Z,10
2023-05-08T02:46:54.334Z,12
2023-05-08T02:48:08.498Z,11
2023-05-08T02:49:22.538Z,11
2023-05-08T02:51:51.067Z,11
2023-05-08T02:53:05.052Z,11
2023-05-08T02:54:19.200Z,11
2023-05-08T02:56:47.403Z,11
2023-05-08T02:58:01.482Z,13
2023-05-08T02:59:15.632Z,12
2023-05-08T03:01:43.965Z,11
2023-05-08T03:02:58.119Z,13
2023-05-08T03:07:54.602Z,12
2023-05-08T03:09:08.716Z,12
2023-05-08T03:10:22.853Z,12
2023-05-08T03:12:51.208Z,12
2023-05-08T03:14:05.244Z,13
2023-05-08T03:15:19.393Z,12
2023-05-08T03:17:47.709Z,11
2023-05-08T03:19:01.699Z,14
2023-05-08T03:20:16.030Z,11
2023-05-08T03:22:44.202Z,13
2023-05-08T03:23:58.457Z,13
2023-05-08T03:25:12.403Z,14
2023-05-08T03:27:40.631Z,13
2023-05-08T03:28:54.907Z,12
2023-05-08T03:30:08.959Z,12
2023-05-08T03:31:23.131Z,11
2023-05-08T03:33:51.301Z,12
2023-05-08T03:35:05.489Z,12
2023-05-08T03:36:19.559Z,11
2023-05-08T03:38:47.910Z,11
2023-05-08T03:40:02.197Z,11
2023-05-08T03:41:16.142Z,11
2023-05-08T03:43:44.613Z,13
2023-05-08T03:44:58.519Z,13
2023-05-08T03:46:12.637Z,11
2023-05-08T03:47:26.907Z,12
2023-05-08T03:49:55.209Z,14
2023-05-08T03:51:09.196Z,12
2023-05-08T03:52:23.403Z,12
2023-05-08T03:54:51.595Z,12
2023-05-08T03:56:05.908Z,12
2023-05-08T03:57:19.865Z,13
2023-05-08T03:59:48.311Z,12
2023-05-08T04:01:02.267Z,11
2023-05-08T04:02:16.484Z,11
2023-05-08T04:04:44.736Z,12
2023-05-08T04:05:58.924Z,13
2023-05-08T04:07:12.935Z,13
2023-05-08T04:08:27.131Z,12
2023-05-08T04:10:55.400Z,15
2023-05-08T04:12:09.546Z,12
2023-05-08T04:13:23.691Z,13
2023-05-08T04:15:51.871Z,13
2023-05-08T04:17:06.026Z,13
2023-05-08T04:18:20.130Z,13
2023-05-08T04:20:48.497Z,14
2023-05-08T04:22:02.582Z,13
2023-05-08T04:23:16.748Z,13
2023-05-08T04:25:44.962Z,17
2023-05-08T04:26:59.177Z,17
2023-05-08T04:28:13.181Z,14
2023-05-08T04:30:41.461Z,14
2023-05-08T04:31:55.653Z,12
2023-05-08T04:33:09.853Z,14
2023-05-08T04:34:23.899Z,14
2023-05-08T04:36:52.152Z,14
2023-05-08T04:38:06.298Z,15
2023-05-08T04:39:20.378Z,13
2023-05-08T04:41:48.709Z,14
2023-05-08T04:43:02.811Z,13
2023-05-08T04:44:17.012Z,14
2023-05-08T04:46:45.276Z,12
2023-05-08T04:47:59.556Z,13
2023-05-08T04:49:13.598Z,15
2023-05-08T04:51:41.829Z,13
2023-05-08T04:52:55.853Z,13
2023-05-08T04:54:10.021Z,11
2023-05-08T04:55:24.160Z,13
2023-05-08T04:57:52.399Z,12
2023-05-08T04:59:06.655Z,13
2023-05-08T05:00:20.647Z,14
2023-05-08T05:02:49.091Z,12
2023-05-08T05:04:03.162Z,13
2023-05-08T05:05:17.286Z,17
2023-05-08T05:07:45.481Z,13
2023-05-08T05:08:59.676Z,13
2023-05-08T05:10:13.793Z,14
2023-05-08T05:11:27.875Z,14
2023-05-08T05:12:42.029Z,13
2023-05-08T05:13:56.163Z,14
2023-05-08T05:15:10.579Z,14
2023-05-08T05:16:24.518Z,14
2023-05-08T05:18:52.691Z,14
2023-05-08T05:20:06.828Z,13
2023-05-08T05:21:20.907Z,13
2023-05-08T05:23:49.319Z,26
2023-05-08T05:25:03.584Z,26
2023-05-08T05:26:17.579Z,23
2023-05-08T05:28:45.758Z,27
2023-05-08T05:29:59.893Z,31
2023-05-08T05:31:14.298Z,26
2023-05-08T05:33:42.286Z,25
2023-05-08T05:34:56.500Z,32
2023-05-08T05:36:10.537Z,35
2023-05-08T05:37:24.738Z,29
2023-05-08T05:39:52.960Z,45
2023-05-08T05:41:07.104Z,42
2023-05-08T05:42:21.198Z,40
2023-05-08T05:44:49.585Z,47
2023-05-08T05:46:03.630Z,47
2023-05-08T05:47:17.865Z,42
2023-05-08T05:49:46.194Z,42
2023-05-08T05:51:00.181Z,42
2023-05-08T05:52:14.293Z,51
2023-05-08T05:54:42.662Z,57
2023-05-08T05:55:56.849Z,37
2023-05-08T05:57:10.771Z,46
2023-05-08T05:58:25.059Z,45
2023-05-08T06:00:53.218Z,62
2023-05-08T06:02:07.408Z,62
2023-05-08T06:03:21.518Z,78
2023-05-08T06:05:49.909Z,62
2023-05-08T06:07:03.920Z,72
2023-05-08T06:08:18.016Z,98
2023-05-08T06:10:46.347Z,55
2023-05-08T06:12:00.381Z,56
2023-05-08T06:13:14.597Z,54
2023-05-08T06:15:43.231Z,33
2023-05-08T06:16:57.154Z,33
2023-05-08T06:18:11.122Z,37
2023-05-08T06:19:25.293Z,33
2023-05-08T06:21:53.454Z,27
2023-05-08T06:23:07.609Z,32
2023-05-08T06:24:21.855Z,31
2023-05-08T06:26:50.011Z,22
2023-05-08T06:28:04.446Z,21
2023-05-08T06:29:18.404Z,17
2023-05-08T06:31:46.542Z,14
2023-05-08T06:33:00.758Z,14
2023-05-08T06:34:14.812Z,14
2023-05-08T06:36:43.345Z,19
2023-05-08T06:37:57.231Z,17
2023-05-08T06:39:11.315Z,15
2023-05-08T06:40:25.770Z,15
2023-05-08T06:42:53.760Z,20
2023-05-08T06:44:08.001Z,18
2023-05-08T06:45:21.997Z,18
2023-05-08T06:47:50.407Z,21
2023-05-08T06:49:04.484Z,18
2023-05-08T06:50:18.612Z,18
2023-05-08T06:52:46.908Z,16
2023-05-08T06:54:00.919Z,14
2023-05-08T06:55:15.315Z,14
2023-05-08T06:57:43.449Z,11
2023-05-08T06:59:07.764Z,12
2023-05-08T07:00:11.614Z,12
2023-05-08T07:01:25.840Z,11
2023-05-08T07:03:54.050Z,12
2023-05-08T07:05:09.298Z,11
2023-05-08T07:06:22.304Z,11
2023-05-08T07:08:50.757Z,11
2023-05-08T07:10:07.185Z,11
2023-05-08T07:11:19.002Z,11
2023-05-08T07:13:47.115Z,11
2023-05-08T07:15:07.832Z,11
2023-05-08T07:16:15.456Z,12
2023-05-08T07:18:43.702Z,13
2023-05-08T07:19:57.761Z,11
2023-05-08T07:21:11.918Z,12
2023-05-08T07:22:26.145Z,11
2023-05-08T07:24:54.372Z,12
2023-05-08T07:26:08.482Z,12
2023-05-08T07:27:22.650Z,12
2023-05-08T07:29:50.947Z,13
2023-05-08T07:31:04.984Z,11
2023-05-08T07:32:19.179Z,11
2023-05-08T07:34:47.357Z,12
2023-05-08T07:36:01.948Z,12
2023-05-08T07:37:15.662Z,12
2023-05-08T07:39:43.971Z,12
2023-05-08T07:40:58.078Z,12
2023-05-08T07:42:12.176Z,11
2023-05-08T07:43:26.309Z,12
2023-05-08T07:45:54.576Z,12
2023-05-08T07:47:08.867Z,12
2023-05-08T07:48:22.878Z,12
2023-05-08T07:50:51.230Z,13
2023-05-08T07:52:05.234Z,12
2023-05-08T07:53:19.470Z,12
2023-05-08T07:55:47.751Z,13
2023-05-08T07:57:01.755Z,12
2023-05-08T07:58:15.889Z,12
2023-05-08T08:00:44.169Z,12
2023-05-08T08:01:58.437Z,13
2023-05-08T08:03:17.713Z,13
2023-05-08T08:04:26.615Z,12
2023-05-08T08:06:54.857Z,12
2023-05-08T08:08:08.979Z,13
2023-05-08T08:09:23.121Z,12
2023-05-08T08:11:51.504Z,15
2023-05-08T08:13:05.579Z,10
2023-05-08T08:14:19.617Z,13
2023-05-08T08:16:47.993Z,14
2023-05-08T08:18:02.153Z,14
2023-05-08T08:19:16.206Z,12
2023-05-08T08:21:44.491Z,11
2023-05-08T08:22:58.636Z,12
2023-05-08T08:24:12.722Z,12
2023-05-08T08:25:26.979Z,11
2023-05-08T08:27:55.185Z,12
2023-05-08T08:29:09.236Z,12
2023-05-08T08:30:23.524Z,11
2023-05-08T08:32:51.687Z,12
2023-05-08T08:34:05.792Z,13
2023-05-08T08:35:19.881Z,12
2023-05-08T08:37:48.138Z,12
2023-05-08T08:39:02.359Z,12
2023-05-08T08:40:16.478Z,12
2023-05-08T08:42:44.740Z,12
2023-05-08T08:43:58.864Z,13
2023-05-08T08:45:13.312Z,13
2023-05-08T08:46:27.190Z,12
2023-05-08T08:48:55.433Z,12
2023-05-08T08:50:11.311Z,13
2023-05-08T08:51:23.706Z,13
2023-05-08T08:53:51.893Z,12
2023-05-08T08:55:06.133Z,12
2023-05-08T08:56:20.230Z,12
2023-05-08T08:58:48.571Z,11
2023-05-08T09:00:02.679Z,11
2023-05-08T09:01:16.841Z,11
2023-05-08T09:03:46.783Z,11
2023-05-08T09:04:59.224Z,11
2023-05-08T09:06:13.232Z,12
2023-05-08T09:08:41.505Z,12
2023-05-08T09:09:55.638Z,11
2023-05-08T09:11:09.821Z,12
2023-05-08T09:12:23.910Z,11
2023-05-08T09:14:52.129Z,11
2023-05-08T09:16:06.386Z,11
2023-05-08T09:17:20.552Z,11
2023-05-08T09:19:48.783Z,11
2023-05-08T09:21:02.905Z,11
2023-05-08T09:22:16.970Z,12
2023-05-08T09:24:45.304Z,11
2023-05-08T09:25:59.484Z,11
2023-05-08T09:27:13.622Z,12
2023-05-08T09:29:41.872Z,11
2023-05-08T09:30:55.909Z,11
2023-05-08T09:32:10.096Z,10
2023-05-08T09:33:24.255Z,11
2023-05-08T09:35:52.414Z,12
2023-05-08T09:37:06.630Z,12
2023-05-08T09:38:20.681Z,12
2023-05-08T09:40:48.991Z,10
2023-05-08T09:42:03.133Z,12
2023-05-08T09:43:17.279Z,11
2023-05-08T09:45:45.537Z,11
2023-05-08T09:46:59.661Z,12
2023-05-08T09:48:13.782Z,12
2023-05-08T09:49:27.962Z,11
2023-05-08T09:50:43.622Z,11
2023-05-08T09:51:56.200Z,12
2023-05-08T09:53:10.299Z,13
2023-05-08T09:54:24.521Z,10
2023-05-08T09:56:52.731Z,12
2023-05-08T09:58:06.972Z,12
2023-05-08T09:59:20.946Z,11
2023-05-08T10:01:49.315Z,12
2023-05-08T10:03:03.661Z,13
2023-05-08T10:04:17.614Z,12
2023-05-08T10:06:45.922Z,12
2023-05-08T10:07:59.955Z,12
2023-05-08T10:09:14.059Z,11
2023-05-08T10:11:42.322Z,13
2023-05-08T10:12:56.545Z,14
2023-05-08T10:14:10.566Z,13
2023-05-08T10:15:24.783Z,11
2023-05-08T10:17:54.211Z,11
2023-05-08T10:19:07.164Z,13
2023-05-08T10:20:21.716Z,12
2023-05-08T10:22:49.538Z,12
2023-05-08T10:24:03.746Z,14
2023-05-08T10:25:17.910Z,12
2023-05-08T10:27:46.109Z,14
2023-05-08T10:29:00.247Z,14
2023-05-08T10:30:14.746Z,13
2023-05-08T10:32:42.634Z,14
2023-05-08T10:33:56.724Z,12
2023-05-08T10:35:10.875Z,12
2023-05-08T10:36:25.126Z,13
2023-05-08T10:38:53.252Z,13
2023-05-08T10:40:07.423Z,13
2023-05-08T10:41:21.542Z,13
2023-05-08T10:43:49.959Z,14
2023-05-08T10:45:04.026Z,13
2023-05-08T10:46:18.176Z,13
2023-05-08T10:48:46.395Z,13
2023-05-08T10:50:00.440Z,12
2023-05-08T10:51:14.602Z,13
2023-05-08T10:53:42.899Z,12
2023-05-08T10:54:56.991Z,13
2023-05-08T10:56:11.093Z,14
2023-05-08T10:57:25.501Z,12
2023-05-08T10:59:53.656Z,12
2023-05-08T11:01:08.135Z,13
2023-05-08T11:02:22.005Z,13
2023-05-08T11:04:50.221Z,13
2023-05-08T11:06:04.274Z,12
2023-05-08T11:07:18.426Z,11
2023-05-08T11:09:46.627Z,12
2023-05-08T11:11:00.839Z,11
2023-05-08T11:12:14.877Z,12
2023-05-08T11:14:43.150Z,12
2023-05-08T11:15:57.292Z,12
2023-05-08T11:17:11.383Z,12
2023-05-08T11:18:28.073Z,12
2023-05-08T11:20:53.873Z,11
2023-05-08T11:22:07.981Z,11
2023-05-08T11:23:22.053Z,10
2023-05-08T11:25:50.307Z,11
2023-05-08T11:27:04.651Z,12
2023-05-08T11:28:18.581Z,11
2023-05-08T11:30:46.879Z,11
2023-05-08T11:32:01.038Z,11
2023-05-08T11:33:15.102Z,11
2023-05-08T11:35:43.491Z,11
2023-05-08T11:36:57.507Z,9
2023-05-08T11:38:11.607Z,10
2023-05-08T11:39:25.940Z,10
2023-05-08T11:41:54.062Z,11
2023-05-08T11:43:08.219Z,10
2023-05-08T11:44:22.305Z,10
2023-05-08T11:46:50.659Z,10
2023-05-08T11:48:04.798Z,9
2023-05-08T11:49:21.475Z,9
2023-05-08T11:51:47.211Z,8
2023-05-08T11:53:01.205Z,9
2023-05-08T11:54:15.499Z,9
2023-05-08T11:56:45.684Z,9
2023-05-08T11:57:57.948Z,9
2023-05-08T11:59:11.947Z,9
2023-05-08T12:00:26.131Z,9
2023-05-08T12:02:54.464Z,9
2023-05-08T12:04:08.684Z,11
2023-05-08T12:05:22.583Z,8
2023-05-08T12:07:51.052Z,9
2023-05-08T12:09:05.035Z,8
2023-05-08T12:10:19.365Z,10
2023-05-08T12:12:47.402Z,7
2023-05-08T12:14:01.462Z,9
2023-05-08T12:15:15.796Z,10
2023-05-08T12:17:44.114Z,8
2023-05-08T12:18:58.066Z,9
2023-05-08T12:20:12.419Z,8
2023-05-08T12:21:26.369Z,9
2023-05-08T12:23:54.691Z,9
2023-05-08T12:25:08.725Z,8
2023-05-08T12:26:22.938Z,8
2023-05-08T12:28:52.314Z,8
2023-05-08T12:30:05.243Z,8
2023-05-08T12:31:19.423Z,7
2023-05-08T12:33:47.755Z,8
2023-05-08T12:35:01.973Z,7
2023-05-08T12:36:16.071Z,7
2023-05-08T12:38:44.175Z,7
2023-05-08T12:39:58.407Z,8
2023-05-08T12:41:12.465Z,9
2023-05-08T12:42:26.615Z,7
2023-05-08T12:44:54.891Z,8
2023-05-08T12:46:09.126Z,7
2023-05-08T12:47:23.185Z,9
2023-05-08T12:49:51.669Z,10
2023-05-08T12:51:05.517Z,7
2023-05-08T12:52:19.663Z,8
2023-05-08T12:54:48.034Z,8
2023-05-08T12:56:02.071Z,10
2023-05-08T12:57:16.178Z,7
2023-05-08T12:59:44.444Z,7
2023-05-08T13:00:58.556Z,8
2023-05-08T13:02:12.913Z,6
2023-05-08T13:04:41.132Z,7
2023-05-08T13:05:55.263Z,7
2023-05-08T13:07:09.233Z,7
2023-05-08T13:08:23.401Z,7
2023-05-08T13:10:51.762Z,6
2023-05-08T13:12:05.807Z,6
2023-05-08T13:13:20.112Z,6
2023-05-08T13:15:48.225Z,6
2023-05-08T13:17:02.363Z,8
2023-05-08T13:18:17.085Z,8
2023-05-08T13:20:44.750Z,5
2023-05-08T13:21:58.917Z,6
2023-05-08T13:23:12.997Z,7
2023-05-08T13:25:41.238Z,7
2023-05-08T13:26:55.483Z,7
2023-05-08T13:28:09.513Z,6
2023-05-08T13:29:23.742Z,6
2023-05-08T13:31:52.036Z,6
2023-05-08T13:33:06.325Z,6
2023-05-08T13:34:20.201Z,7
2023-05-08T13:36:48.653Z,7
2023-05-08T13:38:02.616Z,6
2023-05-08T13:39:16.765Z,9
2023-05-08T13:41:45.028Z,6
2023-05-08T13:42:59.114Z,7
2023-05-08T13:44:13.229Z,6
2023-05-08T13:46:41.508Z,6
2023-05-08T13:47:56.103Z,9
2023-05-08T13:49:09.814Z,6
2023-05-08T13:50:24.000Z,6
2023-05-08T13:52:54.657Z,6
2023-05-08T13:54:06.432Z,8
2023-05-08T13:55:20.646Z,7
2023-05-08T13:57:48.755Z,7
2023-05-08T13:59:02.885Z,6
2023-05-08T14:00:17.114Z,8
2023-05-08T14:02:45.368Z,6
2023-05-08T14:03:59.558Z,6
2023-05-08T14:05:13.814Z,6
2023-05-08T14:07:41.756Z,5
2023-05-08T14:08:57.199Z,8
2023-05-08T14:10:10.182Z,6
2023-05-08T14:11:24.216Z,7
2023-05-08T14:13:52.468Z,6
2023-05-08T14:15:06.602Z,6
2023-05-08T14:16:20.805Z,8
2023-05-08T14:18:49.068Z,6
2023-05-08T14:20:03.124Z,7
2023-05-08T14:21:17.333Z,6
2023-05-08T14:23:45.609Z,6
2023-05-08T14:24:59.699Z,6
2023-05-08T14:26:13.819Z,5
2023-05-08T14:27:28.017Z,6
2023-05-08T14:28:42.066Z,9
2023-05-08T14:29:56.269Z,7
2023-05-08T14:31:10.344Z,7
2023-05-08T14:32:24.591Z,6
2023-05-08T14:34:52.851Z,6
2023-05-08T14:36:06.871Z,7
2023-05-08T14:37:20.972Z,6
2023-05-08T14:39:49.272Z,8
2023-05-08T14:41:04.772Z,7
2023-05-08T14:42:23.321Z,7
2023-05-08T14:44:45.857Z,6
2023-05-08T14:46:00.013Z,6
2023-05-08T14:47:14.151Z,6
2023-05-08T14:49:42.386Z,8
2023-05-08T14:50:56.575Z,8
2023-05-08T14:52:10.587Z,7
2023-05-08T14:53:24.950Z,6
2023-05-08T14:55:53.264Z,6
2023-05-08T14:57:07.189Z,6
2023-05-08T14:58:21.232Z,8
2023-05-08T15:00:49.522Z,6
2023-05-08T15:02:03.837Z,10
2023-05-08T15:03:17.982Z,8
2023-05-08T15:05:46.191Z,6
2023-05-08T15:07:00.215Z,6
2023-05-08T15:08:14.321Z,6
2023-05-08T15:10:42.614Z,5
2023-05-08T15:11:56.724Z,5
2023-05-08T15:13:10.887Z,7
2023-05-08T15:14:25.045Z,4
2023-05-08T15:16:53.273Z,6
2023-05-08T15:18:07.512Z,6
2023-05-08T15:19:21.584Z,5
2023-05-08T15:21:49.862Z,5
2023-05-08T15:23:03.946Z,5
2023-05-08T15:24:18.150Z,5
2023-05-08T15:26:46.432Z,6
2023-05-08T15:28:01.102Z,5
2023-05-08T15:29:14.697Z,5
2023-05-08T15:31:43.038Z,4
2023-05-08T15:32:57.096Z,4
2023-05-08T15:34:11.121Z,6
2023-05-08T15:35:25.384Z,6
2023-05-08T15:37:53.692Z,4
2023-05-08T15:39:07.865Z,5
2023-05-08T15:40:21.811Z,5
2023-05-08T15:47:46.684Z,4
2023-05-08T15:49:02.648Z,4
2023-05-08T15:50:14.976Z,4
2023-05-08T15:51:29.028Z,4
2023-05-08T15:52:43.208Z,5
2023-05-08T15:53:57.289Z,4
2023-05-08T15:55:11.746Z,5
2023-05-08T15:56:25.600Z,4
2023-05-08T15:58:53.775Z,4
2023-05-08T16:00:08.019Z,4
2023-05-08T16:01:22.185Z,4
2023-05-08T16:03:50.335Z,5
2023-05-08T16:05:04.527Z,5
2023-05-08T16:06:18.602Z,5
2023-05-08T16:08:46.896Z,4
2023-05-08T16:10:01.005Z,5
2023-05-08T16:11:15.148Z,5
2023-05-08T16:13:43.407Z,5
2023-05-08T16:14:57.555Z,5
2023-05-08T16:16:11.690Z,5
2023-05-08T16:17:25.866Z,4
2023-05-08T16:19:54.129Z,6
2023-05-08T16:21:08.268Z,18
2023-05-08T16:22:22.373Z,5
2023-05-08T16:24:50.636Z,4
2023-05-08T16:26:04.738Z,4
2023-05-08T16:27:18.933Z,4
2023-05-08T16:29:47.217Z,4
2023-05-08T16:31:01.250Z,5
2023-05-08T16:32:15.486Z,4
2023-05-08T16:34:43.793Z,4
2023-05-08T16:35:57.835Z,6
2023-05-08T16:37:11.947Z,6
2023-05-08T16:38:26.070Z,4
2023-05-08T16:40:54.468Z,7
2023-05-08T16:42:08.470Z,7
2023-05-08T16:43:22.649Z,4
2023-05-08T16:45:50.866Z,4
2023-05-08T16:47:05.216Z,4
2023-05-08T16:48:19.163Z,4
2023-05-08T16:50:47.450Z,4
2023-05-08T16:52:01.526Z,4
2023-05-08T16:53:15.765Z,6
2023-05-08T16:55:43.962Z,5
2023-05-08T16:56:58.125Z,4
2023-05-08T16:58:12.236Z,5
2023-05-08T16:59:26.467Z,5
2023-05-08T17:01:54.633Z,5
2023-05-08T17:03:08.888Z,4
2023-05-08T17:04:22.971Z,4
2023-05-08T17:06:51.320Z,5
2023-05-08T17:08:05.324Z,5
2023-05-08T17:09:19.434Z,5
2023-05-08T17:11:47.775Z,4
2023-05-08T17:13:01.877Z,6
2023-05-08T17:14:15.981Z,5
2023-05-08T17:16:44.297Z,5
2023-05-08T17:17:58.391Z,5
2023-05-08T17:19:12.510Z,5
2023-05-08T17:20:26.667Z,6
2023-05-08T17:22:54.935Z,4
2023-05-08T17:24:09.033Z,5
2023-05-08T17:25:23.229Z,5
2023-05-08T17:27:51.600Z,5
2023-05-08T17:29:05.566Z,5
2023-05-08T17:30:19.693Z,6
2023-05-08T17:32:48.052Z,5
2023-05-08T17:34:02.168Z,5
2023-05-08T17:35:16.429Z,6
2023-05-08T17:37:44.561Z,7
2023-05-08T17:38:58.650Z,5
2023-05-08T17:40:13.092Z,7
2023-05-08T17:41:26.990Z,7
2023-05-08T17:43:55.300Z,5
2023-05-08T17:45:09.458Z,5
2023-05-08T17:46:23.639Z,5
2023-05-08T17:48:51.929Z,6
2023-05-08T17:50:05.835Z,6
2023-05-08T17:51:19.964Z,6
2023-05-08T17:53:48.393Z,6
2023-05-08T17:55:02.419Z,6
2023-05-08T17:56:16.472Z,6
2023-05-08T17:58:44.827Z,6
2023-05-08T17:59:58.908Z,5
2023-05-08T18:01:13.063Z,9
2023-05-08T18:02:27.259Z,7
2023-05-08T18:04:55.493Z,6
2023-05-08T18:06:09.762Z,6
2023-05-08T18:07:23.843Z,7
2023-05-08T18:09:52.152Z,6
2023-05-08T18:11:06.251Z,6
2023-05-08T18:12:20.283Z,7
2023-05-08T18:14:48.806Z,8
2023-05-08T18:16:02.699Z,8
2023-05-08T18:17:16.819Z,8
2023-05-08T18:19:45.205Z,7
2023-05-08T18:20:59.195Z,7
2023-05-08T18:22:13.313Z,7
2023-05-08T18:24:41.562Z,7
2023-05-08T18:25:55.777Z,7
2023-05-08T18:27:09.921Z,7
2023-05-08T18:28:24.014Z,7
2023-05-08T18:30:52.245Z,8
2023-05-08T18:32:06.411Z,6
2023-05-08T18:33:20.465Z,6
2023-05-08T18:35:48.879Z,7
2023-05-08T18:37:02.933Z,8
2023-05-08T18:38:17.052Z,7
2023-05-08T18:40:45.466Z,7
2023-05-08T18:41:59.440Z,7
2023-05-08T18:43:13.613Z,7
2023-05-08T18:45:41.860Z,8
2023-05-08T18:46:55.998Z,8
2023-05-08T18:48:10.130Z,8
2023-05-08T18:49:24.432Z,7
2023-05-08T18:51:52.482Z,9
2023-05-08T18:53:06.680Z,9
2023-05-08T18:54:20.894Z,8
2023-05-08T18:56:49.165Z,9
2023-05-08T18:58:03.276Z,8
2023-05-08T18:59:17.735Z,8
2023-05-08T19:01:45.633Z,10
2023-05-08T19:02:59.865Z,10
2023-05-08T19:04:13.942Z,9
2023-05-08T19:06:42.106Z,9
2023-05-08T19:07:56.344Z,9
2023-05-08T19:09:10.393Z,8
2023-05-08T19:10:24.620Z,9
2023-05-08T19:12:52.969Z,8
2023-05-08T19:14:06.934Z,8
2023-05-08T19:15:20.998Z,8
2023-05-08T19:17:49.304Z,8
2023-05-08T19:19:03.455Z,9
2023-05-08T19:20:17.615Z,8
2023-05-08T19:22:45.884Z,10
2023-05-08T19:24:00.157Z,10
2023-05-08T19:25:14.213Z,10
2023-05-08T19:27:42.382Z,10
2023-05-08T19:28:56.584Z,11
2023-05-08T19:30:10.867Z,9
2023-05-08T19:31:24.967Z,10
2023-05-08T19:33:53.144Z,9
2023-05-08T19:35:07.180Z,9
2023-05-08T19:36:21.336Z,9
2023-05-08T19:38:49.662Z,10
2023-05-08T19:40:03.737Z,11
2023-05-08T19:41:17.901Z,12
2023-05-08T19:43:46.278Z,10
2023-05-08T19:45:00.411Z,11
2023-05-08T19:46:14.408Z,11
2023-05-08T19:48:42.672Z,10
2023-05-08T19:49:56.814Z,9
2023-05-08T19:51:10.897Z,9
2023-05-08T19:52:25.066Z,14
2023-05-08T19:54:53.339Z,9
2023-05-08T19:56:07.581Z,12
2023-05-08T19:57:21.567Z,12
2023-05-08T19:59:50.101Z,10
2023-05-08T20:01:03.985Z,12
2023-05-08T20:02:18.291Z,12
2023-05-08T20:05:14.448Z,10
2023-05-08T20:06:00.523Z,11
2023-05-08T20:07:14.737Z,11
2023-05-08T20:09:42.929Z,11
2023-05-08T20:10:57.166Z,12
2023-05-08T20:12:11.196Z,10
2023-05-08T20:13:25.367Z,11
2023-05-08T20:15:53.637Z,10
2023-05-08T20:17:07.717Z,12
2023-05-08T20:18:21.925Z,11
2023-05-08T20:20:50.161Z,11
2023-05-08T20:22:04.290Z,12
2023-05-08T20:23:18.533Z,10
2023-05-08T20:25:46.720Z,12
2023-05-08T20:27:00.731Z,11
2023-05-08T20:28:15.050Z,11
2023-05-08T20:29:29.020Z,11
2023-05-08T20:30:43.305Z,11
2023-05-08T20:31:57.331Z,11
2023-05-08T20:33:11.590Z,12
2023-05-08T20:34:25.659Z,12
2023-05-08T20:36:53.858Z,13
2023-05-08T20:38:07.981Z,11
2023-05-08T20:39:22.217Z,13
2023-05-08T20:41:50.368Z,12
2023-05-08T20:43:04.523Z,12
2023-05-08T20:44:18.644Z,14
2023-05-08T20:46:47.032Z,12
2023-05-08T20:48:01.183Z,12
2023-05-08T20:49:15.402Z,11
2023-05-08T20:51:43.425Z,11
2023-05-08T20:52:57.568Z,14
2023-05-08T20:54:11.705Z,12
2023-05-08T20:55:26.037Z,11
2023-05-08T20:57:54.095Z,16
2023-05-08T20:59:08.364Z,11
2023-05-08T21:00:22.393Z,12
2023-05-08T21:02:50.711Z,14
2023-05-08T21:04:04.878Z,12
2023-05-08T21:05:19.043Z,12
2023-05-08T21:07:47.288Z,12
2023-05-08T21:09:01.393Z,12
2023-05-08T21:10:15.756Z,12
2023-05-08T21:12:43.761Z,13
2023-05-08T21:13:57.842Z,13
2023-05-08T21:15:12.032Z,12
2023-05-08T21:16:26.977Z,12
2023-05-08T21:18:56.700Z,13
2023-05-08T21:20:08.487Z,12
2023-05-08T21:21:22.652Z,13
2023-05-08T21:23:51.006Z,14
2023-05-08T21:25:05.132Z,14
2023-05-08T21:26:19.184Z,16
2023-05-08T21:28:47.517Z,15
2023-05-08T21:30:01.557Z,14
2023-05-08T21:31:15.749Z,17
2023-05-08T21:33:44.069Z,15
2023-05-08T21:34:58.109Z,14
2023-05-08T21:36:12.247Z,15
2023-05-08T21:37:26.456Z,15
2023-05-08T21:39:54.752Z,15
2023-05-08T21:41:08.827Z,15
2023-05-08T21:42:22.927Z,16
2023-05-08T21:44:51.564Z,14
2023-05-08T21:46:05.669Z,18
2023-05-08T21:47:19.648Z,15
2023-05-08T21:49:47.971Z,18
2023-05-08T21:51:02.077Z,17
2023-05-08T21:52:16.016Z,14
2023-05-08T21:54:44.345Z,19
2023-05-08T21:55:58.515Z,16
2023-05-08T21:57:12.569Z,14
2023-05-08T21:58:26.677Z,20
2023-05-08T22:00:57.399Z,15
2023-05-08T22:02:09.097Z,16
2023-05-08T22:03:23.380Z,14
2023-05-08T22:05:52.534Z,13
2023-05-08T22:07:05.694Z,16
2023-05-08T22:08:19.736Z,15
2023-05-08T22:10:48.022Z,15
2023-05-08T22:12:02.106Z,15
2023-05-08T22:13:16.444Z,14
2023-05-08T22:15:44.576Z,17
2023-05-08T22:16:58.642Z,13
2023-05-08T22:18:12.795Z,15
2023-05-08T22:20:41.034Z,14
2023-05-08T22:21:55.252Z,17
2023-05-08T22:23:09.334Z,16
2023-05-08T22:24:23.491Z,16
2023-05-08T22:26:51.879Z,15
2023-05-08T22:28:05.873Z,16
2023-05-08T22:29:19.989Z,15
2023-05-08T22:31:48.391Z,15
2023-05-08T22:33:02.403Z,16
2023-05-08T22:34:16.627Z,26
2023-05-08T22:36:44.875Z,15
2023-05-08T22:37:59.012Z,19
2023-05-08T22:39:13.061Z,16
2023-05-08T22:40:27.208Z,16
2023-05-08T22:42:55.437Z,18
2023-05-08T22:44:09.586Z,19
2023-05-08T22:45:23.748Z,16
2023-05-08T22:47:52.230Z,15
2023-05-08T22:49:06.147Z,17
2023-05-08T22:50:20.249Z,16
2023-05-08T22:52:48.555Z,20
2023-05-08T22:54:02.732Z,20
2023-05-08T22:55:17.176Z,16
2023-05-08T22:57:45.167Z,15
2023-05-08T22:58:59.271Z,18
2023-05-08T23:00:13.348Z,16
2023-05-08T23:02:41.602Z,17
2023-05-08T23:03:55.725Z,17
2023-05-08T23:05:09.862Z,16
2023-05-08T23:06:24.078Z,16
2023-05-08T23:08:52.323Z,16
2023-05-08T23:10:06.491Z,22
2023-05-08T23:11:20.496Z,15
2023-05-08T23:13:48.814Z,15
2023-05-08T23:15:03.038Z,18
2023-05-08T23:16:17.125Z,17
2023-05-08T23:18:45.357Z,20
2023-05-08T23:19:59.505Z,20
2023-05-08T23:21:13.592Z,16